KPHL/PHL METAR and TAF weather

Enter ICAO airport designator
Station Type Date Time Source
KPHL METAR 2020/07/12 01:54 UTC NOAA

KPHL 120154Z 27011KT 10SM SCT100 28/18 A2972 RMK AO2 SLP062 T02780183


Station Type Date Time Source
KPHL Decoded METAR 2020/07/12 01:54 UTC NOAA

PHILADELPHIA INTERNATIONAL AIRPT, PA, United States (KPHL) 39-52N 075-14W 18M
Jul 11, 2020 - 09:54 PM EDT / 2020.07.12 0154 UTC
Wind: from the W (270 degrees) at 13 MPH (11 KT):0
Visibility: 10 mile(s):0
Sky conditions: partly cloudy
Temperature: 82.0 F (27.8 C)
Dew Point: 64.9 F (18.3 C)
Relative Humidity: 56%
Pressure (altimeter): 29.72 in. Hg (1006 hPa)
ob: KPHL 120154Z 27011KT 10SM SCT100 28/18 A2972 RMK AO2 SLP062 T02780183
cycle: 2

Station Type Date Time Source
KPHL TAF 2020/07/11 21:45 UTC NOAA

TAF
AMD KPHL 112040Z 1121/1224 21008KT P6SM VCSH SCT035 BKN080
FM112300 27008KT P6SM SCT050
FM120700 26004KT P6SM SCT250
FM121400 25008KT P6SM SCT050

Example: see airport list